createdAt,value
2023-03-14T00:02:19.310Z,4.40
2023-03-14T00:04:49.134Z,4.40
2023-03-14T00:07:19.029Z,4.50
2023-03-14T00:09:48.790Z,3.93
2023-03-14T00:12:21.206Z,4.63
2023-03-14T00:14:50.958Z,4.63
2023-03-14T00:17:20.722Z,4.40
2023-03-14T00:19:53.318Z,4.83
2023-03-14T00:22:23.100Z,4.27
2023-03-14T00:24:52.841Z,4.73
2023-03-14T00:27:26.765Z,4.30
2023-03-14T00:29:58.275Z,4.17
2023-03-14T00:32:28.128Z,4.27
2023-03-14T00:34:57.922Z,4.83
2023-03-14T00:37:27.800Z,4.30
2023-03-14T00:39:57.619Z,4.63
2023-03-14T00:42:32.296Z,4.20
2023-03-14T00:45:02.042Z,4.20
2023-03-14T00:47:31.801Z,4.70
2023-03-14T00:50:01.550Z,4.27
2023-03-14T00:52:31.316Z,3.87
2023-03-14T00:55:01.100Z,4.30
2023-03-14T00:57:33.494Z,4.27
2023-03-14T01:00:05.454Z,4.27
2023-03-14T01:02:35.205Z,4.83
2023-03-14T01:05:05.288Z,4.03
2023-03-14T01:07:35.128Z,4.03
2023-03-14T01:10:08.978Z,4.57
2023-03-14T01:12:41.427Z,4.07
2023-03-14T01:15:12.021Z,4.33
2023-03-14T01:17:42.069Z,4.30
2023-03-14T01:20:15.078Z,3.60
2023-03-14T01:22:45.628Z,3.80
2023-03-14T01:25:17.978Z,4.43
2023-03-14T01:27:50.384Z,3.73
2023-03-14T01:30:20.457Z,4.00
2023-03-14T01:32:50.387Z,4.03
2023-03-14T01:35:20.328Z,3.50
2023-03-14T01:37:50.096Z,3.70
2023-03-14T01:40:19.879Z,3.70
2023-03-14T01:42:59.387Z,3.50
2023-03-14T01:46:07.945Z,3.73
2023-03-14T01:48:41.655Z,3.87
2023-03-14T01:51:14.932Z,3.87
2023-03-14T01:53:52.043Z,3.43
2023-03-14T01:56:23.414Z,3.43
2023-03-14T01:58:56.772Z,3.40
2023-03-14T02:01:30.099Z,3.50
2023-03-14T02:04:04.533Z,2.93
2023-03-14T02:06:42.810Z,3.33
2023-03-14T02:09:12.588Z,3.60
2023-03-14T02:11:42.524Z,3.17
2023-03-14T02:14:23.085Z,3.27
2023-03-14T02:16:53.669Z,3.80
2023-03-14T02:19:31.804Z,3.30
2023-03-14T02:22:09.675Z,3.10
2023-03-14T02:24:48.491Z,2.70
2023-03-14T02:27:22.658Z,3.00
2023-03-14T02:30:02.354Z,2.83
2023-03-14T02:32:35.531Z,3.70
2023-03-14T02:35:12.466Z,3.17
2023-03-14T02:37:47.014Z,3.50
2023-03-14T02:40:16.916Z,2.97
2023-03-14T02:42:49.304Z,2.90
2023-03-14T02:45:38.698Z,3.20
2023-03-14T02:48:12.816Z,2.90
2023-03-14T02:50:42.814Z,2.93
2023-03-14T02:53:12.640Z,3.20
2023-03-14T02:55:42.397Z,3.17
2023-03-14T02:58:16.272Z,3.30
2023-03-14T03:00:46.327Z,3.30
2023-03-14T03:03:16.499Z,3.17
2023-03-14T03:05:46.424Z,2.80
2023-03-14T03:08:16.192Z,2.97
2023-03-14T03:10:45.946Z,3.67
2023-03-14T03:13:18.759Z,3.00
2023-03-14T03:15:49.341Z,3.03
2023-03-14T03:18:19.430Z,3.80
2023-03-14T03:20:49.549Z,3.03
2023-03-14T03:23:19.826Z,3.50
2023-03-14T03:25:52.923Z,3.60
2023-03-14T03:28:25.521Z,3.60
2023-03-14T03:30:56.130Z,3.70
2023-03-14T03:33:27.040Z,3.93
2023-03-14T03:35:56.844Z,4.50
2023-03-14T03:38:26.611Z,4.40
2023-03-14T03:40:58.813Z,4.30
2023-03-14T03:43:31.152Z,3.73
2023-03-14T03:46:00.947Z,4.20
2023-03-14T03:48:30.770Z,4.03
2023-03-14T03:51:00.533Z,4.27
2023-03-14T03:53:33.941Z,3.87
2023-03-14T03:56:04.054Z,4.10
2023-03-14T03:58:36.407Z,4.37
2023-03-14T04:01:06.166Z,4.63
2023-03-14T04:03:36.132Z,4.63
2023-03-14T04:06:08.253Z,4.73
2023-03-14T04:08:38.175Z,5.10
2023-03-14T04:11:08.540Z,4.43
2023-03-14T04:13:41.867Z,4.50
2023-03-14T04:16:18.522Z,4.33
2023-03-14T04:18:48.339Z,5.33
2023-03-14T04:21:18.919Z,4.93
2023-03-14T04:23:49.039Z,4.23
2023-03-14T04:26:18.865Z,4.97
2023-03-14T04:28:51.328Z,5.13
2023-03-14T04:31:23.823Z,4.90
2023-03-14T04:33:53.627Z,4.93
2023-03-14T04:36:23.414Z,5.57
2023-03-14T04:38:53.186Z,4.90
2023-03-14T04:41:22.978Z,5.93
2023-03-14T04:43:55.342Z,5.10
2023-03-14T04:46:25.248Z,5.20
2023-03-14T04:48:57.263Z,5.30
2023-03-14T04:51:28.451Z,4.80
2023-03-14T04:53:58.548Z,5.70
2023-03-14T04:56:28.728Z,5.77
2023-03-14T04:59:01.272Z,5.83
2023-03-14T05:01:33.632Z,5.37
2023-03-14T05:04:04.093Z,5.27
2023-03-14T05:06:33.922Z,5.37
2023-03-14T05:09:06.091Z,5.13
2023-03-14T05:11:38.083Z,5.50
2023-03-14T05:14:10.477Z,5.43
2023-03-14T05:16:40.376Z,5.33
2023-03-14T05:19:10.141Z,5.23
2023-03-14T05:21:40.944Z,4.67
2023-03-14T05:24:10.859Z,5.17
2023-03-14T05:26:40.667Z,5.27
2023-03-14T05:29:18.915Z,4.80
2023-03-14T05:31:48.950Z,4.87
2023-03-14T05:34:19.018Z,4.57
2023-03-14T05:36:49.394Z,4.10
2023-03-14T05:39:21.271Z,4.73
2023-03-14T05:41:52.311Z,4.30
2023-03-14T05:44:27.087Z,4.03
2023-03-14T05:46:56.973Z,3.60
2023-03-14T05:49:26.863Z,3.70
2023-03-14T05:51:56.651Z,3.87
2023-03-14T05:54:26.482Z,4.27
2023-03-14T05:56:56.347Z,3.83
2023-03-14T05:59:28.711Z,3.60
2023-03-14T06:01:58.508Z,1.70
2023-03-14T06:04:30.686Z,2.07
2023-03-14T06:07:00.487Z,2.57
2023-03-14T06:09:32.216Z,2.90
2023-03-14T06:12:04.431Z,3.00
2023-03-14T06:14:37.120Z,3.20
2023-03-14T06:17:09.177Z,3.60
2023-03-14T06:19:39.936Z,3.17
2023-03-14T06:22:09.752Z,2.73
2023-03-14T06:24:39.552Z,2.50
2023-03-14T06:27:09.738Z,2.67
2023-03-14T06:29:44.572Z,2.73
2023-03-14T06:32:14.400Z,2.70
2023-03-14T06:34:50.101Z,2.37
2023-03-14T06:37:22.360Z,2.57
2023-03-14T06:39:52.150Z,2.30
2023-03-14T06:42:21.925Z,1.93
2023-03-14T06:44:54.359Z,1.60
2023-03-14T06:47:24.150Z,1.80
2023-03-14T06:49:53.954Z,1.83
2023-03-14T06:52:23.760Z,1.57
2023-03-14T06:54:53.510Z,1.50
2023-03-14T06:57:23.276Z,1.23
2023-03-14T06:59:55.634Z,1.77
2023-03-14T07:02:39.821Z,1.40
2023-03-14T07:05:12.810Z,1.40
2023-03-14T07:07:42.879Z,1.20
2023-03-14T07:10:14.131Z,1.47
2023-03-14T07:12:48.410Z,1.30
2023-03-14T07:15:20.987Z,1.27
2023-03-14T07:17:51.749Z,1.27
2023-03-14T07:20:21.742Z,1.90
2023-03-14T07:22:53.962Z,1.20
2023-03-14T07:25:23.847Z,1.60
2023-03-14T07:27:53.612Z,1.30
2023-03-14T07:30:26.358Z,2.30
2023-03-14T07:32:57.724Z,1.40
2023-03-14T07:35:27.614Z,1.43
2023-03-14T07:37:57.441Z,1.47
2023-03-14T07:40:27.379Z,1.87
2023-03-14T07:42:57.234Z,1.70
2023-03-14T07:45:29.728Z,1.33
2023-03-14T07:47:59.655Z,1.67
2023-03-14T07:50:30.079Z,1.70
2023-03-14T07:52:59.877Z,1.60
2023-03-14T07:55:29.671Z,1.57
2023-03-14T07:57:59.496Z,1.80
2023-03-14T08:00:31.919Z,1.80
2023-03-14T08:03:01.775Z,1.83
2023-03-14T08:05:32.418Z,1.30
2023-03-14T08:08:09.612Z,2.10
2023-03-14T08:10:39.564Z,1.57
2023-03-14T08:13:09.534Z,1.70
2023-03-14T08:15:42.285Z,1.80
2023-03-14T08:18:12.253Z,1.70
2023-03-14T08:20:42.107Z,1.90
2023-03-14T08:23:12.374Z,2.60
2023-03-14T08:25:42.493Z,1.93
2023-03-14T08:28:12.431Z,2.83
2023-03-14T08:30:47.489Z,2.43
2023-03-14T08:33:18.049Z,3.43
2023-03-14T08:35:48.047Z,2.90
2023-03-14T08:38:18.413Z,3.60
2023-03-14T08:40:48.175Z,3.20
2023-03-14T08:43:17.915Z,3.33
2023-03-14T08:45:50.393Z,3.07
2023-03-14T08:48:20.624Z,3.20
2023-03-14T08:50:51.294Z,2.80
2023-03-14T08:53:22.114Z,3.30
2023-03-14T08:55:55.862Z,3.23
2023-03-14T08:58:25.844Z,3.50
2023-03-14T09:00:58.947Z,3.80
2023-03-14T09:03:29.803Z,3.40
2023-03-14T09:05:59.559Z,3.43
2023-03-14T09:08:29.307Z,3.80
2023-03-14T09:10:59.877Z,3.30
2023-03-14T09:13:29.751Z,3.80
2023-03-14T09:16:02.102Z,3.13
2023-03-14T09:18:32.015Z,3.23
2023-03-14T09:21:02.535Z,2.80
2023-03-14T09:23:32.505Z,2.70
2023-03-14T09:26:03.265Z,3.03
2023-03-14T09:28:33.099Z,2.90
2023-03-14T09:31:09.857Z,3.10
2023-03-14T09:33:42.101Z,4.33
2023-03-14T09:36:12.904Z,3.30
2023-03-14T09:38:42.731Z,4.17
2023-03-14T09:41:20.501Z,4.13
2023-03-14T09:43:52.231Z,3.30
2023-03-14T09:46:25.573Z,3.23
2023-03-14T09:48:55.748Z,3.20
2023-03-14T09:51:25.576Z,4.20
2023-03-14T09:53:55.869Z,3.10
2023-03-14T09:56:29.002Z,3.80
2023-03-14T09:59:01.791Z,3.73
2023-03-14T10:01:36.948Z,3.37
2023-03-14T10:04:14.756Z,2.93
2023-03-14T10:06:44.596Z,2.67
2023-03-14T10:09:26.334Z,3.43
2023-03-14T10:12:08.970Z,2.90
2023-03-14T10:14:41.696Z,2.40
2023-03-14T10:17:16.965Z,2.70
2023-03-14T10:19:56.529Z,2.70
2023-03-14T10:22:28.913Z,3.00
2023-03-14T10:25:00.728Z,2.40
2023-03-14T10:27:35.861Z,2.57
2023-03-14T10:30:32.697Z,2.67
2023-03-14T10:33:12.332Z,3.03
2023-03-14T10:35:42.171Z,2.47
2023-03-14T10:38:17.646Z,2.20
2023-03-14T10:40:54.194Z,2.10
2023-03-14T10:43:28.254Z,2.33
2023-03-14T10:46:01.020Z,2.50
2023-03-14T10:48:43.156Z,1.97
2023-03-14T10:51:15.393Z,2.10
2023-03-14T10:53:47.531Z,2.00
2023-03-14T10:56:19.011Z,2.00
2023-03-14T10:58:50.801Z,2.20
2023-03-14T11:01:41.214Z,1.80
2023-03-14T11:04:37.025Z,2.50
2023-03-14T11:07:16.077Z,1.73
2023-03-14T11:09:56.886Z,1.63
2023-03-14T11:12:41.215Z,1.90
2023-03-14T11:15:19.929Z,1.60
2023-03-14T11:18:01.661Z,1.77
2023-03-14T11:20:43.311Z,1.60
2023-03-14T11:23:17.938Z,1.90
2023-03-14T11:25:55.278Z,1.60
2023-03-14T11:28:32.778Z,2.20
2023-03-14T11:31:15.346Z,1.57
2023-03-14T11:33:54.149Z,2.07
2023-03-14T11:36:35.098Z,2.10
2023-03-14T11:39:11.190Z,1.97
2023-03-14T11:42:04.106Z,1.80
2023-03-14T11:44:40.811Z,2.23
2023-03-14T11:47:15.502Z,2.13
2023-03-14T11:49:49.887Z,2.20
2023-03-14T11:52:35.461Z,2.20
2023-03-14T11:55:11.715Z,1.93
2023-03-14T11:57:44.456Z,2.70
2023-03-14T12:00:20.230Z,2.43
2023-03-14T12:02:57.566Z,3.10
2023-03-14T12:05:47.475Z,1.87
2023-03-14T12:08:51.833Z,2.30
2023-03-14T12:11:39.640Z,2.57
2023-03-14T12:14:22.717Z,2.93
2023-03-14T12:16:59.877Z,2.40
2023-03-14T12:19:48.085Z,3.40
2023-03-14T12:22:40.144Z,1.97
2023-03-14T12:25:21.815Z,2.00
2023-03-14T12:28:21.254Z,2.00
2023-03-14T12:30:51.331Z,2.50
2023-03-14T12:33:43.063Z,2.00
2023-03-14T12:36:35.075Z,2.10
2023-03-14T12:39:34.465Z,1.97
2023-03-14T12:42:14.384Z,1.50
2023-03-14T12:44:54.029Z,1.77
2023-03-14T12:47:53.346Z,1.90
2023-03-14T12:50:28.872Z,2.13
2023-03-14T12:53:31.502Z,1.83
2023-03-14T12:56:09.261Z,1.90
2023-03-14T12:58:48.148Z,1.80
2023-03-14T13:01:21.897Z,2.27
2023-03-14T13:03:55.230Z,1.97
2023-03-14T13:06:55.050Z,3.10
2023-03-14T13:10:03.168Z,1.67
2023-03-14T13:12:38.836Z,2.00
2023-03-14T13:15:22.006Z,1.87
2023-03-14T13:17:53.338Z,2.00
2023-03-14T13:20:30.437Z,2.37
2023-03-14T13:23:00.240Z,1.83
2023-03-14T13:25:35.778Z,1.93
2023-03-14T13:28:08.223Z,1.80
2023-03-14T13:30:47.837Z,1.93
2023-03-14T13:33:19.437Z,2.07
2023-03-14T13:35:51.370Z,1.90
2023-03-14T13:38:23.955Z,1.97
2023-03-14T13:41:00.272Z,1.80
2023-03-14T13:43:33.992Z,1.53
2023-03-14T13:46:13.011Z,2.03
2023-03-14T13:48:48.514Z,1.87
2023-03-14T13:51:21.979Z,2.03
2023-03-14T13:53:53.829Z,1.77
2023-03-14T13:56:25.010Z,2.20
2023-03-14T13:58:55.582Z,2.50
2023-03-14T14:01:32.517Z,2.37
2023-03-14T14:04:10.589Z,2.20
2023-03-14T14:06:41.869Z,1.90
2023-03-14T14:09:20.533Z,2.43
2023-03-14T14:12:11.470Z,2.67
2023-03-14T14:14:47.579Z,1.97
2023-03-14T14:17:24.144Z,2.33
2023-03-14T14:19:54.961Z,2.33
2023-03-14T14:22:24.882Z,2.40
2023-03-14T14:24:55.410Z,2.37
2023-03-14T14:27:32.578Z,2.20
2023-03-14T14:30:05.011Z,2.30
2023-03-14T14:32:43.415Z,2.57
2023-03-14T14:35:27.318Z,2.33
2023-03-14T14:37:57.339Z,1.93
2023-03-14T14:40:29.226Z,2.07
2023-03-14T14:43:06.103Z,1.70
2023-03-14T14:45:38.884Z,2.17
2023-03-14T14:48:15.509Z,2.13
2023-03-14T14:50:55.044Z,1.67
2023-03-14T14:53:27.569Z,2.27
2023-03-14T14:56:03.213Z,2.43
2023-03-14T14:58:39.061Z,1.73
2023-03-14T15:01:15.740Z,1.53
2023-03-14T15:03:50.313Z,1.60
2023-03-14T15:06:21.327Z,1.70
2023-03-14T15:08:52.762Z,1.60
2023-03-14T15:11:24.466Z,1.67
2023-03-14T15:13:55.013Z,1.87
2023-03-14T15:16:27.629Z,2.23
2023-03-14T15:19:08.677Z,2.13
2023-03-14T15:21:44.448Z,2.27
2023-03-14T15:24:15.873Z,2.37
2023-03-14T15:26:47.816Z,1.97
2023-03-14T15:29:20.806Z,1.97
2023-03-14T15:31:51.614Z,1.93
2023-03-14T15:34:24.122Z,1.97
2023-03-14T15:36:54.147Z,1.90
2023-03-14T15:39:24.444Z,1.87
2023-03-14T15:41:54.408Z,1.67
2023-03-14T15:44:27.364Z,2.10
2023-03-14T15:46:59.664Z,1.90
2023-03-14T15:49:32.506Z,2.53
2023-03-14T15:52:03.266Z,1.40
2023-03-14T15:54:33.055Z,2.70
2023-03-14T15:57:03.117Z,2.33
2023-03-14T15:59:32.951Z,2.23
2023-03-14T16:02:02.785Z,2.67
2023-03-14T16:05:22.749Z,3.23
2023-03-14T16:07:57.218Z,2.33
2023-03-14T16:10:28.902Z,2.30
2023-03-14T16:12:59.978Z,2.30
2023-03-14T16:15:30.223Z,2.30
2023-03-14T16:18:02.479Z,2.13
2023-03-14T16:23:41.462Z,2.43
2023-03-14T16:26:15.696Z,2.23
2023-03-14T16:28:46.448Z,2.47
2023-03-14T16:31:43.214Z,2.57
2023-03-14T16:35:04.581Z,2.47
2023-03-14T16:37:34.539Z,2.17
2023-03-14T16:40:13.504Z,2.07
2023-03-14T16:43:11.699Z,1.87
2023-03-14T16:45:33.637Z,1.77
2023-03-14T16:48:03.506Z,1.67
2023-03-14T16:50:40.145Z,1.80
2023-03-14T16:53:11.845Z,1.83
2023-03-14T16:55:46.648Z,2.50
2023-03-14T16:58:16.948Z,2.40
2023-03-14T17:00:50.164Z,2.77
2023-03-14T17:03:21.073Z,2.53
2023-03-14T17:05:52.293Z,2.17
2023-03-14T17:08:23.372Z,2.27
2023-03-14T17:10:55.785Z,2.10
2023-03-14T17:13:26.213Z,2.03
2023-03-14T17:15:57.529Z,1.37
2023-03-14T17:18:28.545Z,1.87
2023-03-14T17:20:59.377Z,1.63
2023-03-14T17:23:30.962Z,1.93
2023-03-14T17:26:03.641Z,1.90
2023-03-14T17:28:33.867Z,2.07
2023-03-14T17:31:09.223Z,2.00
2023-03-14T17:33:39.586Z,2.00
2023-03-14T17:36:11.401Z,1.70
2023-03-14T17:38:41.604Z,1.63
2023-03-14T17:41:16.377Z,1.80
2023-03-14T17:43:49.557Z,1.80
2023-03-14T17:46:19.410Z,2.17
2023-03-14T17:48:52.287Z,1.73
2023-03-14T17:51:22.090Z,1.40
2023-03-14T17:53:51.919Z,1.90
2023-03-14T17:56:25.235Z,1.90
2023-03-14T17:58:55.014Z,1.97
2023-03-14T18:01:25.289Z,1.77
2023-03-14T18:03:56.439Z,1.70
2023-03-14T18:06:30.251Z,1.77
2023-03-14T18:09:01.377Z,2.10
2023-03-14T18:11:34.327Z,1.80
2023-03-14T18:14:07.646Z,1.57
2023-03-14T18:16:38.647Z,2.00
2023-03-14T18:19:08.429Z,2.13
2023-03-14T18:21:40.411Z,2.27
2023-03-14T18:24:10.666Z,2.13
2023-03-14T18:26:43.110Z,3.00
2023-03-14T18:29:18.391Z,2.27
2023-03-14T18:31:52.891Z,2.30
2023-03-14T18:34:23.318Z,2.87
2023-03-14T18:36:53.447Z,2.37
2023-03-14T18:39:23.223Z,2.17
2023-03-14T18:41:55.888Z,1.80
2023-03-14T18:44:25.773Z,2.27
2023-03-14T18:46:56.430Z,1.93
2023-03-14T18:49:26.329Z,2.10
2023-03-14T18:51:56.134Z,2.13
2023-03-14T18:54:25.901Z,1.97
2023-03-14T18:57:00.280Z,1.90
2023-03-14T18:59:30.114Z,2.17
2023-03-14T19:02:00.016Z,1.60
2023-03-14T19:04:29.928Z,2.10
2023-03-14T19:06:59.726Z,2.13
2023-03-14T19:09:29.575Z,1.67
2023-03-14T19:12:02.765Z,1.90
2023-03-14T19:14:32.566Z,2.60
2023-03-14T19:17:02.336Z,2.40
2023-03-14T19:19:32.254Z,2.27
2023-03-14T19:22:02.675Z,2.40
2023-03-14T19:24:32.804Z,2.70
2023-03-14T19:27:07.798Z,2.20
2023-03-14T19:29:42.481Z,2.03
2023-03-14T19:32:18.749Z,2.40
2023-03-14T19:34:48.570Z,2.87
2023-03-14T19:37:18.397Z,2.30
2023-03-14T19:39:48.502Z,2.60
2023-03-14T19:42:20.924Z,2.80
2023-03-14T19:44:55.715Z,2.53
2023-03-14T19:47:25.514Z,2.60
2023-03-14T19:49:55.351Z,2.40
2023-03-14T19:52:25.347Z,2.47
2023-03-14T19:54:55.253Z,2.40
2023-03-14T19:57:27.900Z,2.53
2023-03-14T19:59:58.006Z,2.17
2023-03-14T20:02:29.511Z,2.93
2023-03-14T20:04:59.516Z,2.53
2023-03-14T20:07:29.536Z,8.17
2023-03-14T20:09:59.293Z,2.80
2023-03-14T20:12:34.120Z,2.63
2023-03-14T20:15:04.080Z,2.63
2023-03-14T20:17:38.587Z,2.30
2023-03-14T20:20:10.884Z,3.03
2023-03-14T20:22:40.965Z,2.20
2023-03-14T20:25:13.049Z,2.87
2023-03-14T20:27:45.496Z,2.27
2023-03-14T20:30:18.907Z,2.70
2023-03-14T20:32:48.924Z,2.43
2023-03-14T20:35:23.728Z,2.67
2023-03-14T20:37:58.575Z,2.40
2023-03-14T20:40:31.837Z,2.73
2023-03-14T20:43:04.243Z,2.00
2023-03-14T20:45:35.045Z,2.43
2023-03-14T20:48:04.844Z,2.80
2023-03-14T20:50:35.945Z,2.03
2023-03-14T20:53:05.889Z,2.47
2023-03-14T20:55:35.741Z,2.23
2023-03-14T20:58:08.232Z,2.00
2023-03-14T21:00:38.428Z,1.97
2023-03-14T21:03:08.282Z,1.97
2023-03-14T21:05:38.325Z,1.80
2023-03-14T21:08:08.343Z,1.97
2023-03-14T21:10:38.227Z,1.90
2023-03-14T21:13:11.299Z,1.93
2023-03-14T21:15:41.466Z,2.57
2023-03-14T21:18:12.621Z,2.37
2023-03-14T21:20:43.890Z,1.90
2023-03-14T21:23:16.442Z,2.60
2023-03-14T21:25:47.569Z,1.90
2023-03-14T21:28:19.989Z,2.77
2023-03-14T21:30:52.413Z,1.93
2023-03-14T21:33:22.461Z,2.07
2023-03-14T21:35:52.274Z,1.87
2023-03-14T21:38:22.020Z,2.50
2023-03-14T21:40:51.926Z,1.67
2023-03-14T21:43:27.621Z,2.07
2023-03-14T21:45:58.360Z,2.17
2023-03-14T21:48:28.882Z,2.00
2023-03-14T21:50:58.766Z,2.03
2023-03-14T21:53:30.445Z,1.70
2023-03-14T21:56:00.288Z,2.07
2023-03-14T21:58:35.638Z,2.47
2023-03-14T22:01:07.085Z,2.00
2023-03-14T22:03:40.822Z,2.17
2023-03-14T22:06:10.969Z,2.00
2023-03-14T22:08:40.752Z,2.60
2023-03-14T22:11:10.564Z,2.30
2023-03-14T22:13:43.009Z,2.00
2023-03-14T22:16:12.827Z,1.73
2023-03-14T22:18:42.701Z,1.77
2023-03-14T22:21:12.752Z,2.00
2023-03-14T22:23:42.515Z,1.80
2023-03-14T22:26:12.296Z,2.07
2023-03-14T22:28:44.692Z,1.90
2023-03-14T22:31:15.386Z,1.73
2023-03-14T22:33:45.197Z,2.00
2023-03-14T22:36:15.074Z,2.27
2023-03-14T22:38:44.941Z,1.97
2023-03-14T22:41:14.771Z,1.87
2023-03-14T22:43:47.683Z,1.93
2023-03-14T22:46:17.516Z,1.90
2023-03-14T22:48:47.290Z,2.07
2023-03-14T22:51:19.117Z,1.87
2023-03-14T22:53:49.315Z,1.63
2023-03-14T22:56:19.072Z,1.97
2023-03-14T22:58:51.376Z,1.70
2023-03-14T23:01:21.160Z,1.80
2023-03-14T23:03:51.723Z,1.77
2023-03-14T23:06:22.151Z,1.90
2023-03-14T23:08:51.906Z,1.50
2023-03-14T23:11:21.761Z,1.73
2023-03-14T23:13:54.099Z,1.53
2023-03-14T23:16:34.061Z,2.23
2023-03-14T23:19:09.867Z,1.50
2023-03-14T23:21:39.907Z,1.87
2023-03-14T23:24:11.243Z,1.90
2023-03-14T23:26:41.055Z,1.53
2023-03-14T23:29:13.997Z,2.03
2023-03-14T23:31:44.524Z,1.60
2023-03-14T23:34:14.330Z,2.27
2023-03-14T23:36:49.225Z,1.90
2023-03-14T23:39:18.998Z,1.90
2023-03-14T23:41:48.776Z,2.23
2023-03-14T23:44:22.188Z,1.80
2023-03-14T23:46:54.033Z,1.67
2023-03-14T23:49:23.816Z,1.60
2023-03-14T23:51:53.578Z,1.33
2023-03-14T23:54:23.334Z,1.57
2023-03-14T23:56:53.194Z,1.30
2023-03-14T23:59:26.660Z,1.70
